createdAt,value
2023-05-06T00:00:40.253Z,95064.00
2023-05-06T00:01:40.256Z,95064.00
2023-05-06T00:02:40.328Z,95064.00
2023-05-06T00:03:40.345Z,95062.00
2023-05-06T00:04:40.315Z,95058.00
2023-05-06T00:05:40.299Z,95056.00
2023-05-06T00:06:40.347Z,95054.00
2023-05-06T00:07:40.405Z,95054.00
2023-05-06T00:08:40.343Z,95054.00
2023-05-06T00:09:40.419Z,95054.00
2023-05-06T00:10:40.352Z,95058.00
2023-05-06T00:11:40.429Z,95056.00
2023-05-06T00:12:40.463Z,95056.00
2023-05-06T00:13:40.458Z,95056.00
2023-05-06T00:14:40.487Z,95056.00
2023-05-06T00:15:40.497Z,95054.00
2023-05-06T00:16:40.583Z,95052.00
2023-05-06T00:17:40.563Z,95052.00
2023-05-06T00:18:40.508Z,95052.00
2023-05-06T00:19:40.542Z,95054.00
2023-05-06T00:20:40.593Z,95052.00
2023-05-06T00:21:40.545Z,95052.00
2023-05-06T00:22:40.606Z,95048.00
2023-05-06T00:23:40.632Z,95048.00
2023-05-06T00:24:40.653Z,95046.00
2023-05-06T00:25:40.676Z,95048.00
2023-05-06T00:26:40.656Z,95046.00
2023-05-06T00:27:40.760Z,95044.00
2023-05-06T00:28:40.748Z,95044.00
2023-05-06T00:29:40.775Z,95044.00
2023-05-06T00:30:40.808Z,95044.00
2023-05-06T00:31:40.813Z,95042.00
2023-05-06T00:32:40.840Z,95042.00
2023-05-06T00:33:40.784Z,95040.00
2023-05-06T00:34:40.791Z,95040.00
2023-05-06T00:35:40.794Z,95038.00
2023-05-06T00:36:40.826Z,95038.00
2023-05-06T00:37:41.005Z,95038.00
2023-05-06T00:38:40.834Z,95038.00
2023-05-06T00:39:40.832Z,95036.00
2023-05-06T00:40:40.877Z,95034.00
2023-05-06T00:41:40.878Z,95036.00
2023-05-06T00:42:40.890Z,95034.00
2023-05-06T00:43:41.021Z,95032.00
2023-05-06T00:44:41.117Z,95032.00
2023-05-06T00:45:40.995Z,95031.00
2023-05-06T00:46:41.188Z,95029.00
2023-05-06T00:47:41.032Z,95032.00
2023-05-06T00:48:41.072Z,95031.00
2023-05-06T00:49:41.049Z,95029.00
2023-05-06T00:50:41.162Z,95027.00
2023-05-06T00:51:41.209Z,95029.00
2023-05-06T00:52:41.096Z,95027.00
2023-05-06T00:53:41.430Z,95027.00
2023-05-06T00:54:41.136Z,95025.00
2023-05-06T00:55:41.129Z,95025.00
2023-05-06T00:56:41.163Z,95025.00
2023-05-06T00:57:41.223Z,95023.00
2023-05-06T00:58:41.181Z,95023.00
2023-05-06T00:59:41.203Z,95021.00
2023-05-06T01:00:41.197Z,95021.00
2023-05-06T01:01:41.318Z,95019.00
2023-05-06T01:02:47.611Z,95019.00
2023-05-06T01:03:42.398Z,95019.00
2023-05-06T01:04:41.255Z,95019.00
2023-05-06T01:05:41.253Z,95019.00
2023-05-06T01:06:41.272Z,95019.00
2023-05-06T01:07:41.277Z,95015.00
2023-05-06T01:08:41.235Z,95015.00
2023-05-06T01:09:41.248Z,95015.00
2023-05-06T01:10:41.190Z,95013.00
2023-05-06T01:11:41.194Z,95013.00
2023-05-06T01:12:41.212Z,95011.00
2023-05-06T01:13:41.222Z,95011.00
2023-05-06T01:14:41.180Z,95011.00
2023-05-06T01:15:41.182Z,95011.00
2023-05-06T01:16:41.217Z,95013.00
2023-05-06T01:17:41.453Z,95011.00
2023-05-06T01:18:41.193Z,95013.00
2023-05-06T01:19:41.143Z,95015.00
2023-05-06T01:20:41.222Z,95011.00
2023-05-06T01:21:41.153Z,95015.00
2023-05-06T01:22:41.941Z,95017.00
2023-05-06T01:23:41.243Z,95015.00
2023-05-06T01:24:41.239Z,95017.00
2023-05-06T01:25:41.267Z,95017.00
2023-05-06T01:26:41.265Z,95017.00
2023-05-06T01:27:41.254Z,95015.00
2023-05-06T01:28:41.323Z,95017.00
2023-05-06T01:29:41.318Z,95017.00
2023-05-06T01:30:41.313Z,95015.00
2023-05-06T01:31:41.397Z,95011.00
2023-05-06T01:32:41.481Z,95013.00
2023-05-06T01:33:41.412Z,95015.00
2023-05-06T01:34:41.495Z,95015.00
2023-05-06T01:35:41.436Z,95013.00
2023-05-06T01:36:42.448Z,95017.00
2023-05-06T01:37:41.478Z,95013.00
2023-05-06T01:38:41.490Z,95015.00
2023-05-06T01:39:42.012Z,95015.00
2023-05-06T01:40:41.591Z,95017.00
2023-05-06T01:41:41.564Z,95019.00
2023-05-06T01:42:41.666Z,95017.00
2023-05-06T01:43:41.685Z,95019.00
2023-05-06T01:44:41.623Z,95019.00
2023-05-06T01:45:41.620Z,95019.00
2023-05-06T01:46:41.777Z,95021.00
2023-05-06T01:47:41.687Z,95021.00
2023-05-06T01:48:41.701Z,95019.00
2023-05-06T01:49:41.724Z,95017.00
2023-05-06T01:50:41.716Z,95017.00
2023-05-06T01:51:41.745Z,95017.00
2023-05-06T01:52:41.772Z,95021.00
2023-05-06T01:53:41.776Z,95019.00
2023-05-06T01:54:41.779Z,95019.00
2023-05-06T01:55:41.795Z,95019.00
2023-05-06T01:56:41.807Z,95019.00
2023-05-06T01:57:41.820Z,95019.00
2023-05-06T01:58:41.867Z,95019.00
2023-05-06T01:59:41.881Z,95021.00
2023-05-06T02:00:41.884Z,95021.00
2023-05-06T02:01:41.961Z,95019.00
2023-05-06T02:02:42.005Z,95019.00
2023-05-06T02:03:41.979Z,95019.00
2023-05-06T02:04:41.965Z,95019.00
2023-05-06T02:05:42.019Z,95017.00
2023-05-06T02:06:41.987Z,95019.00
2023-05-06T02:07:42.055Z,95015.00
2023-05-06T02:08:42.067Z,95019.00
2023-05-06T02:09:42.083Z,95021.00
2023-05-06T02:10:42.102Z,95019.00
2023-05-06T02:11:42.161Z,95015.00
2023-05-06T02:12:42.217Z,95017.00
2023-05-06T02:13:42.194Z,95011.00
2023-05-06T02:14:42.206Z,95013.00
2023-05-06T02:15:42.238Z,95013.00
2023-05-06T02:16:42.225Z,95011.00
2023-05-06T02:17:42.242Z,95013.00
2023-05-06T02:18:42.275Z,95011.00
2023-05-06T02:19:42.365Z,95011.00
2023-05-06T02:20:42.324Z,95011.00
2023-05-06T02:21:42.332Z,95013.00
2023-05-06T02:22:42.422Z,95013.00
2023-05-06T02:23:42.416Z,95011.00
2023-05-06T02:24:42.391Z,95013.00
2023-05-06T02:25:42.405Z,95011.00
2023-05-06T02:26:42.433Z,95011.00
2023-05-06T02:27:42.428Z,95011.00
2023-05-06T02:28:42.480Z,95011.00
2023-05-06T02:29:42.513Z,95011.00
2023-05-06T02:30:42.529Z,95013.00
2023-05-06T02:31:42.586Z,95013.00
2023-05-06T02:32:42.623Z,95011.00
2023-05-06T02:33:42.650Z,95011.00
2023-05-06T02:34:42.834Z,95011.00
2023-05-06T02:35:42.794Z,95009.00
2023-05-06T02:36:42.801Z,95009.00
2023-05-06T02:37:42.749Z,95005.00
2023-05-06T02:38:42.817Z,95007.00
2023-05-06T02:39:42.814Z,95001.00
2023-05-06T02:40:42.825Z,95003.00
2023-05-06T02:41:42.832Z,94999.00
2023-05-06T02:42:42.869Z,94997.00
2023-05-06T02:43:42.911Z,95001.00
2023-05-06T02:44:42.879Z,94999.00
2023-05-06T02:45:42.967Z,94999.00
2023-05-06T02:46:42.953Z,94999.00
2023-05-06T02:47:43.006Z,94999.00
2023-05-06T02:48:43.046Z,95001.00
2023-05-06T02:49:43.047Z,95001.00
2023-05-06T02:50:43.016Z,95003.00
2023-05-06T02:51:43.055Z,95003.00
2023-05-06T02:52:43.055Z,95003.00
2023-05-06T02:53:43.091Z,95003.00
2023-05-06T02:54:43.101Z,95001.00
2023-05-06T02:55:43.111Z,94999.00
2023-05-06T02:56:43.137Z,94997.00
2023-05-06T02:57:43.223Z,94997.00
2023-05-06T02:58:43.195Z,94997.00
2023-05-06T02:59:43.227Z,94999.00
2023-05-06T03:00:43.216Z,94999.00
2023-05-06T03:01:43.315Z,94999.00
2023-05-06T03:02:43.370Z,94995.00
2023-05-06T03:03:43.287Z,94997.00
2023-05-06T03:04:43.383Z,94997.00
2023-05-06T03:05:44.367Z,94997.00
2023-05-06T03:06:43.396Z,94999.00
2023-05-06T03:07:43.515Z,94999.00
2023-05-06T03:08:43.473Z,94997.00
2023-05-06T03:09:43.491Z,95001.00
2023-05-06T03:10:43.628Z,94999.00
2023-05-06T03:11:43.503Z,94999.00
2023-05-06T03:12:43.572Z,94999.00
2023-05-06T03:13:43.619Z,95001.00
2023-05-06T03:14:43.617Z,94999.00
2023-05-06T03:15:43.669Z,94995.00
2023-05-06T03:16:43.679Z,94999.00
2023-05-06T03:17:44.138Z,94997.00
2023-05-06T03:18:43.715Z,94993.00
2023-05-06T03:19:43.748Z,94993.00
2023-05-06T03:20:43.801Z,94997.00
2023-05-06T03:21:43.898Z,94995.00
2023-05-06T03:22:43.857Z,94995.00
2023-05-06T03:23:43.853Z,94995.00
2023-05-06T03:24:43.913Z,94995.00
2023-05-06T03:25:43.963Z,94995.00
2023-05-06T03:26:44.026Z,94995.00
2023-05-06T03:27:44.009Z,94993.00
2023-05-06T03:28:43.989Z,94991.00
2023-05-06T03:29:44.017Z,94991.00
2023-05-06T03:30:44.084Z,94991.00
2023-05-06T03:31:44.112Z,94991.00
2023-05-06T03:32:44.127Z,94989.00
2023-05-06T03:33:44.144Z,94987.00
2023-05-06T03:34:44.169Z,94993.00
2023-05-06T03:35:44.219Z,94989.00
2023-05-06T03:36:44.378Z,94993.00
2023-05-06T03:37:44.292Z,94991.00
2023-05-06T03:38:44.296Z,94987.00
2023-05-06T03:39:44.329Z,94984.00
2023-05-06T03:40:44.336Z,94985.00
2023-05-06T03:41:44.358Z,94982.00
2023-05-06T03:42:44.394Z,94984.00
2023-05-06T03:43:44.457Z,94982.00
2023-05-06T03:44:44.478Z,94984.00
2023-05-06T03:45:44.478Z,94984.00
2023-05-06T03:46:44.587Z,94985.00
2023-05-06T03:47:44.592Z,94985.00
2023-05-06T03:48:44.593Z,94985.00
2023-05-06T03:49:44.601Z,94985.00
2023-05-06T03:50:44.982Z,94985.00
2023-05-06T03:51:44.684Z,94987.00
2023-05-06T03:52:44.731Z,94989.00
2023-05-06T03:53:44.751Z,94989.00
2023-05-06T03:54:45.009Z,94995.00
2023-05-06T03:55:44.806Z,94991.00
2023-05-06T03:56:44.856Z,94995.00
2023-05-06T03:57:44.938Z,94991.00
2023-05-06T03:58:44.873Z,94991.00
2023-05-06T03:59:44.938Z,94991.00
2023-05-06T04:00:44.945Z,94993.00
2023-05-06T04:01:45.018Z,94991.00
2023-05-06T04:02:46.001Z,94993.00
2023-05-06T04:03:45.146Z,94993.00
2023-05-06T04:04:45.077Z,94995.00
2023-05-06T04:05:45.086Z,94999.00
2023-05-06T04:06:45.133Z,95001.00
2023-05-06T04:07:45.146Z,95003.00
2023-05-06T04:08:45.214Z,95005.00
2023-05-06T04:09:45.225Z,95009.00
2023-05-06T04:10:45.237Z,95009.00
2023-05-06T04:11:45.277Z,95013.00
2023-05-06T04:12:45.335Z,95019.00
2023-05-06T04:13:45.344Z,95017.00
2023-05-06T04:14:45.423Z,95021.00
2023-05-06T04:15:45.355Z,95023.00
2023-05-06T04:16:45.452Z,95025.00
2023-05-06T04:17:45.527Z,95029.00
2023-05-06T04:18:45.477Z,95031.00
2023-05-06T04:19:45.439Z,95034.00
2023-05-06T04:20:45.501Z,95036.00
2023-05-06T04:21:46.005Z,95038.00
2023-05-06T04:22:45.556Z,95038.00
2023-05-06T04:23:45.620Z,95038.00
2023-05-06T04:24:47.484Z,95036.00
2023-05-06T04:25:45.626Z,95034.00
2023-05-06T04:26:45.644Z,95036.00
2023-05-06T04:27:45.641Z,95034.00
2023-05-06T04:28:45.704Z,95032.00
2023-05-06T04:29:45.703Z,95066.00
2023-05-06T04:30:45.933Z,95062.00
2023-05-06T04:31:45.803Z,95062.00
2023-05-06T04:32:45.841Z,95064.00
2023-05-06T04:33:45.848Z,95062.00
2023-05-06T04:34:45.842Z,95058.00
2023-05-06T04:35:45.905Z,95056.00
2023-05-06T04:36:45.964Z,95054.00
2023-05-06T04:37:45.911Z,95058.00
2023-05-06T04:38:45.945Z,95060.00
2023-05-06T04:39:45.956Z,95060.00
2023-05-06T04:40:45.998Z,95062.00
2023-05-06T04:41:46.045Z,95064.00
2023-05-06T04:42:46.057Z,95064.00
2023-05-06T04:43:46.115Z,95062.00
2023-05-06T04:44:46.125Z,95062.00
2023-05-06T04:45:46.567Z,95058.00
2023-05-06T04:46:46.262Z,95062.00
2023-05-06T04:47:46.278Z,95064.00
2023-05-06T04:48:46.258Z,95066.00
2023-05-06T04:49:46.284Z,95064.00
2023-05-06T04:50:46.307Z,95066.00
2023-05-06T04:51:46.334Z,95066.00
2023-05-06T04:52:46.340Z,95066.00
2023-05-06T04:53:46.365Z,95064.00
2023-05-06T04:54:46.393Z,95062.00
2023-05-06T04:55:46.407Z,95060.00
2023-05-06T04:56:46.427Z,95062.00
2023-05-06T04:57:46.521Z,95062.00
2023-05-06T04:58:46.502Z,95068.00
2023-05-06T04:59:46.567Z,95070.00
2023-05-06T05:00:46.561Z,95068.00
2023-05-06T05:01:46.685Z,95066.00
2023-05-06T05:02:46.678Z,95066.00
2023-05-06T05:03:46.833Z,95070.00
2023-05-06T05:04:46.704Z,95073.00
2023-05-06T05:05:46.712Z,95070.00
2023-05-06T05:06:46.715Z,95070.00
2023-05-06T05:07:47.533Z,95071.00
2023-05-06T05:08:46.744Z,95070.00
2023-05-06T05:09:46.776Z,95071.00
2023-05-06T05:10:46.750Z,95071.00
2023-05-06T05:11:46.852Z,95073.00
2023-05-06T05:12:46.868Z,95070.00
2023-05-06T05:13:46.884Z,95071.00
2023-05-06T05:14:46.862Z,95071.00
2023-05-06T05:15:46.898Z,95070.00
2023-05-06T05:16:46.938Z,95068.00
2023-05-06T05:17:46.971Z,95066.00
2023-05-06T05:18:46.998Z,95066.00
2023-05-06T05:19:47.027Z,95064.00
2023-05-06T05:20:47.050Z,95066.00
2023-05-06T05:21:47.067Z,95068.00
2023-05-06T05:22:47.186Z,95073.00
2023-05-06T05:23:47.152Z,95075.00
2023-05-06T05:24:47.109Z,95075.00
2023-05-06T05:25:47.183Z,95077.00
2023-05-06T05:26:47.205Z,95079.00
2023-05-06T05:27:47.287Z,95079.00
2023-05-06T05:28:47.270Z,95081.00
2023-05-06T05:29:47.317Z,95079.00
2023-05-06T05:30:47.483Z,95077.00
2023-05-06T05:31:47.458Z,95073.00
2023-05-06T05:32:47.557Z,95073.00
2023-05-06T05:33:47.482Z,95073.00
2023-05-06T05:34:47.455Z,95077.00
2023-05-06T05:35:47.439Z,95077.00
2023-05-06T05:36:47.481Z,95079.00
2023-05-06T05:37:48.045Z,95079.00
2023-05-06T05:38:47.591Z,95077.00
2023-05-06T05:39:47.603Z,95077.00
2023-05-06T05:40:47.612Z,95075.00
2023-05-06T05:41:47.663Z,95079.00
2023-05-06T05:42:47.687Z,95077.00
2023-05-06T05:43:47.733Z,95077.00
2023-05-06T05:44:47.767Z,95077.00
2023-05-06T05:45:47.833Z,95079.00
2023-05-06T05:46:47.952Z,95075.00
2023-05-06T05:47:47.862Z,95073.00
2023-05-06T05:48:47.916Z,95073.00
2023-05-06T05:49:47.924Z,95066.00
2023-05-06T05:50:47.974Z,95064.00
2023-05-06T05:51:47.977Z,95060.00
2023-05-06T05:52:48.046Z,95058.00
2023-05-06T05:53:48.008Z,95064.00
2023-05-06T05:54:48.053Z,95071.00
2023-05-06T05:55:48.095Z,95075.00
2023-05-06T05:56:48.136Z,95073.00
2023-05-06T05:57:48.197Z,95070.00
2023-05-06T05:58:48.214Z,95066.00
2023-05-06T05:59:48.261Z,95058.00
2023-05-06T06:00:48.309Z,95058.00
2023-05-06T06:01:48.278Z,95058.00
2023-05-06T06:02:48.384Z,95058.00
2023-05-06T06:03:48.485Z,95060.00
2023-05-06T06:04:48.382Z,95062.00
2023-05-06T06:05:48.442Z,95064.00
2023-05-06T06:06:48.408Z,95064.00
2023-05-06T06:07:48.498Z,95070.00
2023-05-06T06:08:48.506Z,95070.00
2023-05-06T06:09:48.526Z,95071.00
2023-05-06T06:10:48.536Z,95070.00
2023-05-06T06:11:48.601Z,95071.00
2023-05-06T06:12:48.641Z,95070.00
2023-05-06T06:13:48.616Z,95070.00
2023-05-06T06:14:48.700Z,95068.00
2023-05-06T06:15:48.764Z,95068.00
2023-05-06T06:16:48.744Z,95070.00
2023-05-06T06:17:48.820Z,95071.00
2023-05-06T06:18:48.787Z,95073.00
2023-05-06T06:19:48.804Z,95075.00
2023-05-06T06:20:49.645Z,95075.00
2023-05-06T06:21:48.888Z,95077.00
2023-05-06T06:22:48.953Z,95073.00
2023-05-06T06:23:48.936Z,95073.00
2023-05-06T06:24:48.995Z,95077.00
2023-05-06T06:25:48.978Z,95077.00
2023-05-06T06:26:49.097Z,95077.00
2023-05-06T06:27:49.104Z,95075.00
2023-05-06T06:28:49.135Z,95070.00
2023-05-06T06:29:49.107Z,95071.00
2023-05-06T06:30:49.146Z,95070.00
2023-05-06T06:31:49.220Z,95068.00
2023-05-06T06:32:49.331Z,95064.00
2023-05-06T06:33:49.350Z,95066.00
2023-05-06T06:34:49.252Z,95062.00
2023-05-06T06:35:49.327Z,95062.00
2023-05-06T06:36:49.369Z,95060.00
2023-05-06T06:37:49.410Z,95060.00
2023-05-06T06:38:49.505Z,95062.00
2023-05-06T06:39:49.443Z,95062.00
2023-05-06T06:40:49.500Z,95062.00
2023-05-06T06:41:49.524Z,95062.00
2023-05-06T06:42:49.606Z,95060.00
2023-05-06T06:43:49.574Z,95062.00
2023-05-06T06:44:49.686Z,95062.00
2023-05-06T06:45:49.694Z,95062.00
2023-05-06T06:46:49.669Z,95062.00
2023-05-06T06:47:49.730Z,95062.00
2023-05-06T06:48:49.783Z,95064.00
2023-05-06T06:49:49.788Z,95062.00
2023-05-06T06:50:49.816Z,95068.00
2023-05-06T06:51:49.899Z,95066.00
2023-05-06T06:52:49.921Z,95066.00
2023-05-06T06:53:49.933Z,95066.00
2023-05-06T06:54:49.920Z,95064.00
2023-05-06T06:55:50.081Z,95062.00
2023-05-06T06:56:50.033Z,95064.00
2023-05-06T06:57:50.085Z,95062.00
2023-05-06T06:58:52.383Z,95064.00
2023-05-06T06:59:50.084Z,95062.00
2023-05-06T07:00:50.147Z,95062.00
2023-05-06T07:01:50.116Z,95060.00
2023-05-06T07:02:50.077Z,95062.00
2023-05-06T07:03:50.105Z,95064.00
2023-05-06T07:04:50.077Z,95062.00
2023-05-06T07:05:50.035Z,95062.00
2023-05-06T07:06:50.019Z,95060.00
2023-05-06T07:07:50.026Z,95058.00
2023-05-06T07:08:50.053Z,95054.00
2023-05-06T07:09:50.056Z,95054.00
2023-05-06T07:10:50.240Z,95054.00
2023-05-06T07:11:50.072Z,95054.00
2023-05-06T07:12:50.065Z,95056.00
2023-05-06T07:13:50.033Z,95056.00
2023-05-06T07:14:50.022Z,95054.00
2023-05-06T07:15:49.970Z,95054.00
2023-05-06T07:16:51.441Z,95052.00
2023-05-06T07:17:49.995Z,95050.00
2023-05-06T07:18:49.958Z,95050.00
2023-05-06T07:19:50.014Z,95048.00
2023-05-06T07:20:50.016Z,95052.00
2023-05-06T07:21:49.941Z,95048.00
2023-05-06T07:22:49.931Z,95046.00
2023-05-06T07:23:49.974Z,95048.00
2023-05-06T07:24:49.933Z,95048.00
2023-05-06T07:25:49.934Z,95048.00
2023-05-06T07:26:49.953Z,95046.00
2023-05-06T07:27:49.980Z,95046.00
2023-05-06T07:28:49.915Z,95046.00
2023-05-06T07:29:49.892Z,95042.00
2023-05-06T07:30:49.978Z,95044.00
2023-05-06T07:31:49.862Z,95046.00
2023-05-06T07:32:49.883Z,95046.00
2023-05-06T07:33:49.853Z,95044.00
2023-05-06T07:34:49.890Z,95046.00
2023-05-06T07:35:50.615Z,95044.00
2023-05-06T07:36:49.865Z,95044.00
2023-05-06T07:37:49.852Z,95046.00
2023-05-06T07:38:49.821Z,95044.00
2023-05-06T07:39:49.830Z,95044.00
2023-05-06T07:40:49.857Z,95044.00
2023-05-06T07:41:49.915Z,95044.00
2023-05-06T07:42:49.982Z,95046.00
2023-05-06T07:43:49.963Z,95040.00
2023-05-06T07:44:49.980Z,95040.00
2023-05-06T07:45:50.063Z,95042.00
2023-05-06T07:46:50.228Z,95042.00
2023-05-06T07:47:50.220Z,95042.00
2023-05-06T07:48:50.150Z,95040.00
2023-05-06T07:49:50.181Z,95007.00
2023-05-06T07:50:50.165Z,95007.00
2023-05-06T07:51:50.215Z,95007.00
2023-05-06T07:52:50.222Z,95009.00
2023-05-06T07:53:50.304Z,95005.00
2023-05-06T07:54:50.294Z,95005.00
2023-05-06T07:55:50.303Z,95003.00
2023-05-06T07:56:50.373Z,95003.00
2023-05-06T07:57:50.463Z,95003.00
2023-05-06T07:58:50.496Z,95003.00
2023-05-06T07:59:50.539Z,95005.00
2023-05-06T08:00:51.093Z,94999.00
2023-05-06T08:01:50.464Z,95034.00
2023-05-06T08:02:50.550Z,95036.00
2023-05-06T08:03:50.657Z,95038.00
2023-05-06T08:04:51.758Z,95036.00
2023-05-06T08:05:50.579Z,95036.00
2023-05-06T08:06:50.617Z,95038.00
2023-05-06T08:07:50.634Z,95036.00
2023-05-06T08:08:51.113Z,95038.00
2023-05-06T08:09:50.741Z,95036.00
2023-05-06T08:10:50.749Z,95034.00
2023-05-06T08:11:50.793Z,95034.00
2023-05-06T08:12:50.847Z,95034.00
2023-05-06T08:13:50.891Z,95034.00
2023-05-06T08:14:50.894Z,95034.00
2023-05-06T08:15:50.917Z,95040.00
2023-05-06T08:16:51.122Z,95040.00
2023-05-06T08:17:50.993Z,95038.00
2023-05-06T08:18:50.964Z,95040.00
2023-05-06T08:19:51.000Z,95038.00
2023-05-06T08:20:51.097Z,95038.00
2023-05-06T08:21:51.075Z,95036.00
2023-05-06T08:22:51.094Z,95038.00
2023-05-06T08:23:51.150Z,95040.00
2023-05-06T08:24:51.217Z,95040.00
2023-05-06T08:25:51.228Z,95040.00
2023-05-06T08:26:51.222Z,95040.00
2023-05-06T08:27:51.275Z,95040.00
2023-05-06T08:28:51.282Z,95038.00
2023-05-06T08:29:51.321Z,95042.00
2023-05-06T08:30:51.394Z,95042.00
2023-05-06T08:31:51.400Z,95042.00
2023-05-06T08:32:51.494Z,95042.00
2023-05-06T08:33:53.868Z,95040.00
2023-05-06T08:34:51.447Z,95044.00
2023-05-06T08:35:51.465Z,95040.00
2023-05-06T08:36:51.395Z,95040.00
2023-05-06T08:37:51.417Z,95040.00
2023-05-06T08:38:51.410Z,95042.00
2023-05-06T08:39:51.382Z,95044.00
2023-05-06T08:40:51.367Z,95042.00
2023-05-06T08:41:51.392Z,95044.00
2023-05-06T08:42:51.414Z,95046.00
2023-05-06T08:43:51.345Z,95048.00
2023-05-06T08:44:51.345Z,95048.00
2023-05-06T08:45:51.404Z,95048.00
2023-05-06T08:46:51.388Z,95048.00
2023-05-06T08:47:51.364Z,95050.00
2023-05-06T08:48:51.325Z,95052.00
2023-05-06T08:49:51.342Z,95048.00
2023-05-06T08:50:51.300Z,95050.00
2023-05-06T08:51:51.314Z,95048.00
2023-05-06T08:52:51.292Z,95048.00
2023-05-06T08:53:51.310Z,95048.00
2023-05-06T08:54:51.277Z,95048.00
2023-05-06T08:55:51.267Z,95048.00
2023-05-06T08:56:51.640Z,95048.00
2023-05-06T08:57:51.298Z,95050.00
2023-05-06T08:58:51.243Z,95048.00
2023-05-06T08:59:51.257Z,95048.00
2023-05-06T09:00:51.292Z,95015.00
2023-05-06T09:01:51.233Z,95015.00
2023-05-06T09:02:51.278Z,95015.00
2023-05-06T09:03:51.681Z,95021.00
2023-05-06T09:04:51.233Z,95019.00
2023-05-06T09:05:51.179Z,95023.00
2023-05-06T09:06:51.194Z,95023.00
2023-05-06T09:07:51.219Z,95025.00
2023-05-06T09:08:51.157Z,95025.00
2023-05-06T09:09:51.165Z,95025.00
2023-05-06T09:10:51.179Z,95023.00
2023-05-06T09:11:51.184Z,95062.00
2023-05-06T09:12:51.251Z,95062.00
2023-05-06T09:13:51.241Z,95060.00
2023-05-06T09:14:51.220Z,95062.00
2023-05-06T09:15:51.108Z,95060.00
2023-05-06T09:16:51.173Z,95062.00
2023-05-06T09:17:51.295Z,95062.00
2023-05-06T09:18:51.112Z,95062.00
2023-05-06T09:19:51.123Z,95058.00
2023-05-06T09:20:51.097Z,95056.00
2023-05-06T09:21:51.083Z,95054.00
2023-05-06T09:22:51.042Z,95052.00
2023-05-06T09:23:51.075Z,95050.00
2023-05-06T09:24:51.056Z,95046.00
2023-05-06T09:25:51.632Z,95048.00
2023-05-06T09:26:51.013Z,95048.00
2023-05-06T09:27:51.039Z,95048.00
2023-05-06T09:28:51.037Z,95048.00
2023-05-06T09:29:51.006Z,95046.00
2023-05-06T09:30:51.017Z,95052.00
2023-05-06T09:31:51.004Z,95048.00
2023-05-06T09:32:51.075Z,95046.00
2023-05-06T09:33:50.970Z,95046.00
2023-05-06T09:34:51.045Z,95046.00
2023-05-06T09:35:50.993Z,95042.00
2023-05-06T09:36:50.951Z,95046.00
2023-05-06T09:37:50.969Z,95044.00
2023-05-06T09:38:50.945Z,95042.00
2023-05-06T09:39:50.917Z,95042.00
2023-05-06T09:40:50.933Z,95040.00
2023-05-06T09:41:50.931Z,95044.00
2023-05-06T09:42:50.940Z,95048.00
2023-05-06T09:43:50.936Z,95046.00
2023-05-06T09:44:50.926Z,95044.00
2023-05-06T09:45:50.945Z,95046.00
2023-05-06T09:46:50.958Z,95042.00
2023-05-06T09:47:50.894Z,95042.00
2023-05-06T09:48:50.872Z,95042.00
2023-05-06T09:49:50.874Z,95044.00
2023-05-06T09:50:51.043Z,95042.00
2023-05-06T09:51:50.841Z,95042.00
2023-05-06T09:52:50.864Z,95042.00
2023-05-06T09:53:51.212Z,95046.00
2023-05-06T09:54:50.856Z,95042.00
2023-05-06T09:55:50.830Z,95011.00
2023-05-06T09:56:50.823Z,95009.00
2023-05-06T09:57:50.817Z,95009.00
2023-05-06T09:58:50.843Z,95009.00
2023-05-06T09:59:50.765Z,95009.00
2023-05-06T10:00:50.808Z,95007.00
2023-05-06T10:01:50.850Z,95007.00
2023-05-06T10:02:51.064Z,95007.00
2023-05-06T10:03:50.950Z,95007.00
2023-05-06T10:04:51.337Z,95005.00
2023-05-06T10:05:50.888Z,95005.00
2023-05-06T10:06:50.896Z,95007.00
2023-05-06T10:07:50.896Z,95001.00
2023-05-06T10:08:50.945Z,95001.00
2023-05-06T10:09:51.003Z,94997.00
2023-05-06T10:10:50.976Z,94997.00
2023-05-06T10:11:50.962Z,94995.00
2023-05-06T10:12:50.986Z,94993.00
2023-05-06T10:13:50.953Z,94991.00
2023-05-06T10:14:50.992Z,94993.00
2023-05-06T10:15:51.022Z,95029.00
2023-05-06T10:16:51.065Z,94991.00
2023-05-06T10:17:51.143Z,94989.00
2023-05-06T10:18:51.084Z,94987.00
2023-05-06T10:19:51.083Z,94985.00
2023-05-06T10:20:51.148Z,94984.00
2023-05-06T10:21:51.091Z,94982.00
2023-05-06T10:22:51.292Z,95017.00
2023-05-06T10:23:51.103Z,95017.00
2023-05-06T10:24:51.173Z,95015.00
2023-05-06T10:25:51.232Z,95015.00
2023-05-06T10:26:51.227Z,95013.00
2023-05-06T10:27:51.242Z,95015.00
2023-05-06T10:28:51.250Z,95013.00
2023-05-06T10:29:51.249Z,95009.00
2023-05-06T10:30:51.254Z,95009.00
2023-05-06T10:31:51.296Z,95009.00
2023-05-06T10:32:51.338Z,95007.00
2023-05-06T10:33:51.315Z,95005.00
2023-05-06T10:34:51.313Z,95005.00
2023-05-06T10:35:51.306Z,95007.00
2023-05-06T10:36:51.390Z,95005.00
2023-05-06T10:37:51.365Z,95007.00
2023-05-06T10:38:51.507Z,95005.00
2023-05-06T10:39:51.408Z,95005.00
2023-05-06T10:40:51.441Z,95005.00
2023-05-06T10:41:52.207Z,95003.00
2023-05-06T10:42:51.509Z,94999.00
2023-05-06T10:43:51.478Z,94997.00
2023-05-06T10:44:51.486Z,94997.00
2023-05-06T10:45:51.535Z,94997.00
2023-05-06T10:46:51.549Z,94997.00
2023-05-06T10:47:51.665Z,94995.00
2023-05-06T10:48:51.571Z,94995.00
2023-05-06T10:49:51.581Z,94993.00
2023-05-06T10:50:51.651Z,94993.00
2023-05-06T10:51:51.653Z,94987.00
2023-05-06T10:52:51.666Z,94989.00
2023-05-06T10:53:51.693Z,94987.00
2023-05-06T10:54:51.862Z,94984.00
2023-05-06T10:55:51.700Z,94987.00
2023-05-06T10:56:51.730Z,94985.00
2023-05-06T10:57:51.733Z,94984.00
2023-05-06T10:58:51.733Z,94984.00
2023-05-06T10:59:51.826Z,94984.00
2023-05-06T11:00:51.885Z,94984.00
2023-05-06T11:01:51.793Z,94984.00
2023-05-06T11:02:51.880Z,94984.00
2023-05-06T11:03:51.864Z,94984.00
2023-05-06T11:04:51.884Z,94982.00
2023-05-06T11:05:51.856Z,94982.00
2023-05-06T11:06:51.889Z,94980.00
2023-05-06T11:07:51.879Z,94980.00
2023-05-06T11:08:51.926Z,94978.00
2023-05-06T11:09:51.957Z,94976.00
2023-05-06T11:10:51.967Z,94974.00
2023-05-06T11:11:51.988Z,94972.00
2023-05-06T11:12:52.018Z,94972.00
2023-05-06T11:13:52.018Z,94972.00
2023-05-06T11:14:52.067Z,94972.00
2023-05-06T11:15:52.156Z,94976.00
2023-05-06T11:16:52.122Z,94974.00
2023-05-06T11:17:52.156Z,94970.00
2023-05-06T11:18:52.183Z,94972.00
2023-05-06T11:19:52.176Z,94972.00
2023-05-06T11:20:52.207Z,94972.00
2023-05-06T11:21:52.181Z,94970.00
2023-05-06T11:22:52.203Z,94974.00
2023-05-06T11:23:52.263Z,94970.00
2023-05-06T11:24:52.256Z,94972.00
2023-05-06T11:25:52.251Z,94972.00
2023-05-06T11:26:52.326Z,94972.00
2023-05-06T11:27:52.329Z,94972.00
2023-05-06T11:28:52.698Z,94970.00
2023-05-06T11:29:52.415Z,94970.00
2023-05-06T11:30:52.379Z,94970.00
2023-05-06T11:31:52.383Z,94968.00
2023-05-06T11:32:52.429Z,94970.00
2023-05-06T11:33:52.483Z,94968.00
2023-05-06T11:34:52.431Z,94970.00
2023-05-06T11:35:52.492Z,94970.00
2023-05-06T11:36:52.509Z,94968.00
2023-05-06T11:37:52.583Z,94968.00
2023-05-06T11:38:52.688Z,94968.00
2023-05-06T11:39:52.568Z,94968.00
2023-05-06T11:40:52.646Z,94968.00
2023-05-06T11:41:52.653Z,94968.00
2023-05-06T11:42:52.820Z,94970.00
2023-05-06T11:43:52.758Z,94968.00
2023-05-06T11:44:52.664Z,94968.00